sensor_id;sensor_type;location;lat;lon;timestamp;pressure;altitude;pressure_sealevel;temperature;humidity
25510;BME280;13413;52.336;21.200;2023-04-21T00:00:46;100925.27;;;11.76;52.20
25510;BME280;13413;52.336;21.200;2023-04-21T00:03:40;100923.46;;;11.70;52.20
25510;BME280;13413;52.336;21.200;2023-04-21T00:06:33;100924.44;;;11.62;52.29
25510;BME280;13413;52.336;21.200;2023-04-21T00:09:28;100920.23;;;11.54;52.34
25510;BME280;13413;52.336;21.200;2023-04-21T00:12:22;100922.74;;;11.47;52.85
25510;BME280;13413;52.336;21.200;2023-04-21T00:15:16;100923.98;;;11.41;52.71
25510;BME280;13413;52.336;21.200;2023-04-21T00:18:10;100919.58;;;11.33;53.19
25510;BME280;13413;52.336;21.200;2023-04-21T00:21:05;100919.48;;;11.32;53.39
25510;BME280;13413;52.336;21.200;2023-04-21T00:23:58;100915.25;;;11.24;53.26
25510;BME280;13413;52.336;21.200;2023-04-21T00:26:53;100916.45;;;11.18;53.49
25510;BME280;13413;52.336;21.200;2023-04-21T00:29:48;100914.52;;;11.19;53.83
25510;BME280;13413;52.336;21.200;2023-04-21T00:32:43;100916.88;;;11.17;53.47
25510;BME280;13413;52.336;21.200;2023-04-21T00:35:38;100915.19;;;11.06;53.45
25510;BME280;13413;52.336;21.200;2023-04-21T00:38:32;100910.66;;;10.92;53.61
25510;BME280;13413;52.336;21.200;2023-04-21T00:41:28;100913.86;;;10.83;53.84
25510;BME280;13413;52.336;21.200;2023-04-21T00:44:23;100913.65;;;10.73;54.04
25510;BME280;13413;52.336;21.200;2023-04-21T00:47:17;100912.14;;;10.67;54.42
25510;BME280;13413;52.336;21.200;2023-04-21T00:50:13;100907.42;;;10.65;54.45
25510;BME280;13413;52.336;21.200;2023-04-21T00:53:07;100905.36;;;10.61;54.38
25510;BME280;13413;52.336;21.200;2023-04-21T00:56:02;100909.41;;;10.60;54.38
25510;BME280;13413;52.336;21.200;2023-04-21T00:58:58;100905.55;;;10.58;54.94
25510;BME280;13413;52.336;21.200;2023-04-21T01:01:53;100907.86;;;10.56;54.73
25510;BME280;13413;52.336;21.200;2023-04-21T01:04:47;100907.46;;;10.53;55.04
25510;BME280;13413;52.336;21.200;2023-04-21T01:07:41;100907.21;;;10.47;55.11
25510;BME280;13413;52.336;21.200;2023-04-21T01:10:36;100905.93;;;10.41;55.15
25510;BME280;13413;52.336;21.200;2023-04-21T01:13:30;100904.52;;;10.39;55.26
25510;BME280;13413;52.336;21.200;2023-04-21T01:16:25;100904.52;;;10.36;55.31
25510;BME280;13413;52.336;21.200;2023-04-21T01:19:19;100905.35;;;10.37;55.40
25510;BME280;13413;52.336;21.200;2023-04-21T01:22:13;100905.31;;;10.34;55.54
25510;BME280;13413;52.336;21.200;2023-04-21T01:25:10;100903.86;;;10.26;55.34
25510;BME280;13413;52.336;21.200;2023-04-21T01:28:05;100904.39;;;10.19;55.50
25510;BME280;13413;52.336;21.200;2023-04-21T01:30:59;100906.10;;;10.12;55.43
25510;BME280;13413;52.336;21.200;2023-04-21T01:33:53;100907.23;;;10.08;55.72
25510;BME280;13413;52.336;21.200;2023-04-21T01:36:48;100907.48;;;10.02;55.73
25510;BME280;13413;52.336;21.200;2023-04-21T01:39:44;100905.09;;;10.00;55.75
25510;BME280;13413;52.336;21.200;2023-04-21T01:42:37;100900.29;;;9.97;55.80
25510;BME280;13413;52.336;21.200;2023-04-21T01:51:21;100901.31;;;9.90;56.17
25510;BME280;13413;52.336;21.200;2023-04-21T01:54:16;100902.64;;;9.85;56.17
25510;BME280;13413;52.336;21.200;2023-04-21T01:57:11;100900.52;;;9.78;56.47
25510;BME280;13413;52.336;21.200;2023-04-21T02:00:06;100902.23;;;9.76;56.57
25510;BME280;13413;52.336;21.200;2023-04-21T02:03:00;100902.42;;;9.71;56.74
25510;BME280;13413;52.336;21.200;2023-04-21T02:05:55;100898.80;;;9.72;57.11
25510;BME280;13413;52.336;21.200;2023-04-21T02:08:48;100894.52;;;9.69;57.16
25510;BME280;13413;52.336;21.200;2023-04-21T02:11:43;100892.80;;;9.68;57.21
25510;BME280;13413;52.336;21.200;2023-04-21T02:14:39;100892.07;;;9.62;57.16
25510;BME280;13413;52.336;21.200;2023-04-21T02:17:33;100897.27;;;9.56;56.83
25510;BME280;13413;52.336;21.200;2023-04-21T02:20:26;100902.41;;;9.53;57.49
25510;BME280;13413;52.336;21.200;2023-04-21T02:23:21;100903.64;;;9.49;57.34
25510;BME280;13413;52.336;21.200;2023-04-21T02:26:16;100899.36;;;9.44;57.33
25510;BME280;13413;52.336;21.200;2023-04-21T02:29:10;100903.66;;;9.40;57.38
25510;BME280;13413;52.336;21.200;2023-04-21T02:32:05;100901.09;;;9.38;57.53
25510;BME280;13413;52.336;21.200;2023-04-21T02:35:00;100895.50;;;9.36;57.88
25510;BME280;13413;52.336;21.200;2023-04-21T02:37:55;100896.34;;;9.34;57.58
25510;BME280;13413;52.336;21.200;2023-04-21T02:40:48;100894.07;;;9.30;57.60
25510;BME280;13413;52.336;21.200;2023-04-21T02:43:43;100896.84;;;9.25;57.60
25510;BME280;13413;52.336;21.200;2023-04-21T02:46:40;100893.23;;;9.19;57.82
25510;BME280;13413;52.336;21.200;2023-04-21T02:49:34;100891.06;;;9.18;58.03
25510;BME280;13413;52.336;21.200;2023-04-21T02:52:36;100891.41;;;9.16;57.73
25510;BME280;13413;52.336;21.200;2023-04-21T02:55:30;100890.55;;;9.09;57.71
25510;BME280;13413;52.336;21.200;2023-04-21T02:58:24;100887.45;;;9.01;57.81
25510;BME280;13413;52.336;21.200;2023-04-21T03:01:19;100886.13;;;8.99;58.39
25510;BME280;13413;52.336;21.200;2023-04-21T03:04:13;100885.21;;;8.99;58.18
25510;BME280;13413;52.336;21.200;2023-04-21T03:07:12;100888.63;;;8.97;58.48
25510;BME280;13413;52.336;21.200;2023-04-21T03:10:07;100888.78;;;8.95;58.32
25510;BME280;13413;52.336;21.200;2023-04-21T03:13:01;100886.90;;;8.95;58.42
25510;BME280;13413;52.336;21.200;2023-04-21T03:15:55;100882.05;;;8.90;58.18
25510;BME280;13413;52.336;21.200;2023-04-21T03:18:48;100887.39;;;8.81;58.19
25510;BME280;13413;52.336;21.200;2023-04-21T03:21:43;100883.13;;;8.78;58.54
25510;BME280;13413;52.336;21.200;2023-04-21T03:24:37;100888.27;;;8.77;58.70
25510;BME280;13413;52.336;21.200;2023-04-21T03:27:30;100887.17;;;8.79;58.71
25510;BME280;13413;52.336;21.200;2023-04-21T03:30:25;100892.80;;;8.83;58.88
25510;BME280;13413;52.336;21.200;2023-04-21T03:33:18;100893.86;;;8.83;58.80
25510;BME280;13413;52.336;21.200;2023-04-21T03:36:12;100892.46;;;8.76;58.78
25510;BME280;13413;52.336;21.200;2023-04-21T03:39:06;100897.45;;;8.75;59.18
25510;BME280;13413;52.336;21.200;2023-04-21T03:42:00;100899.88;;;8.76;59.02
25510;BME280;13413;52.336;21.200;2023-04-21T03:44:54;100899.48;;;8.78;59.17
25510;BME280;13413;52.336;21.200;2023-04-21T03:47:49;100902.92;;;8.84;59.22
25510;BME280;13413;52.336;21.200;2023-04-21T03:50:45;100902.92;;;8.84;59.12
25510;BME280;13413;52.336;21.200;2023-04-21T03:53:39;100905.70;;;8.84;58.96
25510;BME280;13413;52.336;21.200;2023-04-21T03:56:33;100903.70;;;8.82;59.17
25510;BME280;13413;52.336;21.200;2023-04-21T03:59:26;100903.81;;;8.75;59.19
25510;BME280;13413;52.336;21.200;2023-04-21T04:02:18;100906.16;;;8.73;59.31
25510;BME280;13413;52.336;21.200;2023-04-21T04:11:34;100903.36;;;8.74;59.43
25510;BME280;13413;52.336;21.200;2023-04-21T04:14:28;100907.75;;;8.76;59.28
25510;BME280;13413;52.336;21.200;2023-04-21T04:17:22;100909.54;;;8.80;59.27
25510;BME280;13413;52.336;21.200;2023-04-21T04:20:17;100915.11;;;8.86;59.41
25510;BME280;13413;52.336;21.200;2023-04-21T04:23:11;100915.86;;;8.94;59.30
25510;BME280;13413;52.336;21.200;2023-04-21T04:26:05;100919.14;;;9.02;59.40
25510;BME280;13413;52.336;21.200;2023-04-21T04:29:00;100919.74;;;9.07;59.11
25510;BME280;13413;52.336;21.200;2023-04-21T04:31:53;100922.55;;;9.14;59.29
25510;BME280;13413;52.336;21.200;2023-04-21T04:34:48;100923.25;;;9.21;59.03
25510;BME280;13413;52.336;21.200;2023-04-21T04:43:29;100928.95;;;9.47;58.66
25510;BME280;13413;52.336;21.200;2023-04-21T04:46:22;100927.30;;;9.54;58.72
25510;BME280;13413;52.336;21.200;2023-04-21T04:49:16;100928.90;;;9.59;58.33
25510;BME280;13413;52.336;21.200;2023-04-21T04:52:10;100931.23;;;9.62;58.28
25510;BME280;13413;52.336;21.200;2023-04-21T04:55:05;100934.77;;;9.67;58.20
25510;BME280;13413;52.336;21.200;2023-04-21T04:58:00;100931.92;;;9.74;58.12
25510;BME280;13413;52.336;21.200;2023-04-21T05:00:54;100932.32;;;9.79;57.96
25510;BME280;13413;52.336;21.200;2023-04-21T05:03:48;100931.75;;;9.86;57.87
25510;BME280;13413;52.336;21.200;2023-04-21T05:06:43;100930.47;;;9.94;57.79
25510;BME280;13413;52.336;21.200;2023-04-21T05:09:37;100924.45;;;9.99;57.51
25510;BME280;13413;52.336;21.200;2023-04-21T05:12:31;100926.83;;;10.05;57.26
25510;BME280;13413;52.336;21.200;2023-04-21T05:15:25;100928.23;;;10.13;57.27
25510;BME280;13413;52.336;21.200;2023-04-21T05:18:19;100927.56;;;10.22;57.08
25510;BME280;13413;52.336;21.200;2023-04-21T05:21:13;100928.37;;;10.31;56.57
25510;BME280;13413;52.336;21.200;2023-04-21T05:24:14;100930.17;;;10.41;56.55
25510;BME280;13413;52.336;21.200;2023-04-21T05:27:09;100929.48;;;10.51;56.64
25510;BME280;13413;52.336;21.200;2023-04-21T05:30:03;100927.11;;;10.61;56.32
25510;BME280;13413;52.336;21.200;2023-04-21T05:32:58;100930.07;;;10.74;56.09
25510;BME280;13413;52.336;21.200;2023-04-21T05:38:45;100924.73;;;10.97;55.07
25510;BME280;13413;52.336;21.200;2023-04-21T05:41:40;100925.56;;;11.07;54.63
25510;BME280;13413;52.336;21.200;2023-04-21T05:44:34;100927.80;;;11.17;55.29
25510;BME280;13413;52.336;21.200;2023-04-21T05:47:29;100927.15;;;11.32;55.04
25510;BME280;13413;52.336;21.200;2023-04-21T05:50:24;100930.78;;;11.43;54.59
25510;BME280;13413;52.336;21.200;2023-04-21T05:53:18;100931.65;;;11.52;53.82
25510;BME280;13413;52.336;21.200;2023-04-21T05:56:12;100931.25;;;11.62;54.46
25510;BME280;13413;52.336;21.200;2023-04-21T05:59:05;100935.35;;;11.75;54.19
25510;BME280;13413;52.336;21.200;2023-04-21T06:02:00;100937.21;;;11.83;53.58
25510;BME280;13413;52.336;21.200;2023-04-21T06:04:55;100937.59;;;11.94;54.02
25510;BME280;13413;52.336;21.200;2023-04-21T06:07:51;100933.34;;;12.05;53.84
25510;BME280;13413;52.336;21.200;2023-04-21T06:10:45;100929.65;;;12.14;53.34
25510;BME280;13413;52.336;21.200;2023-04-21T06:13:40;100929.95;;;12.23;52.94
25510;BME280;13413;52.336;21.200;2023-04-21T06:16:35;100925.68;;;12.35;52.59
25510;BME280;13413;52.336;21.200;2023-04-21T06:19:29;100924.64;;;12.44;52.23
25510;BME280;13413;52.336;21.200;2023-04-21T06:22:23;100923.41;;;12.52;51.59
25510;BME280;13413;52.336;21.200;2023-04-21T06:30:51;100918.98;;;12.87;52.27
25510;BME280;13413;52.336;21.200;2023-04-21T06:33:46;100919.60;;;12.99;51.82
25510;BME280;13413;52.336;21.200;2023-04-21T06:36:40;100917.23;;;13.09;51.22
25510;BME280;13413;52.336;21.200;2023-04-21T06:39:34;100918.25;;;13.18;50.69
25510;BME280;13413;52.336;21.200;2023-04-21T06:42:29;100913.46;;;13.25;50.48
25510;BME280;13413;52.336;21.200;2023-04-21T06:45:23;100916.39;;;13.34;50.53
25510;BME280;13413;52.336;21.200;2023-04-21T06:48:18;100914.27;;;13.44;50.29
25510;BME280;13413;52.336;21.200;2023-04-21T06:51:12;100916.04;;;13.55;50.25
25510;BME280;13413;52.336;21.200;2023-04-21T06:54:07;100916.59;;;13.65;49.80
25510;BME280;13413;52.336;21.200;2023-04-21T06:57:02;100911.50;;;13.75;49.31
25510;BME280;13413;52.336;21.200;2023-04-21T06:59:57;100909.17;;;13.85;49.14
25510;BME280;13413;52.336;21.200;2023-04-21T07:02:50;100910.88;;;14.02;48.88
25510;BME280;13413;52.336;21.200;2023-04-21T07:05:44;100913.45;;;14.16;48.92
25510;BME280;13413;52.336;21.200;2023-04-21T07:08:39;100913.80;;;14.26;49.09
25510;BME280;13413;52.336;21.200;2023-04-21T07:11:33;100910.70;;;14.34;48.95
25510;BME280;13413;52.336;21.200;2023-04-21T07:14:27;100914.77;;;14.46;48.45
25510;BME280;13413;52.336;21.200;2023-04-21T07:17:21;100912.98;;;14.52;47.92
25510;BME280;13413;52.336;21.200;2023-04-21T07:20:15;100911.86;;;14.60;48.08
25510;BME280;13413;52.336;21.200;2023-04-21T07:23:09;100911.82;;;14.71;48.01
25510;BME280;13413;52.336;21.200;2023-04-21T07:26:03;100910.95;;;14.81;47.28
25510;BME280;13413;52.336;21.200;2023-04-21T07:28:57;100908.73;;;14.91;47.56
25510;BME280;13413;52.336;21.200;2023-04-21T07:31:52;100909.84;;;15.03;47.17
25510;BME280;13413;52.336;21.200;2023-04-21T07:34:46;100910.71;;;15.12;47.01
25510;BME280;13413;52.336;21.200;2023-04-21T07:37:40;100909.52;;;15.19;46.73
25510;BME280;13413;52.336;21.200;2023-04-21T07:40:33;100912.52;;;15.30;46.50
25510;BME280;13413;52.336;21.200;2023-04-21T07:43:28;100913.97;;;15.41;45.98
25510;BME280;13413;52.336;21.200;2023-04-21T07:46:21;100910.27;;;15.53;46.06
25510;BME280;13413;52.336;21.200;2023-04-21T07:49:17;100909.58;;;15.65;46.02
25510;BME280;13413;52.336;21.200;2023-04-21T07:52:10;100909.55;;;15.78;45.46
25510;BME280;13413;52.336;21.200;2023-04-21T07:55:05;100906.34;;;15.89;45.26
25510;BME280;13413;52.336;21.200;2023-04-21T07:57:58;100899.89;;;15.99;44.54
25510;BME280;13413;52.336;21.200;2023-04-21T08:00:53;100895.25;;;16.11;43.97
25510;BME280;13413;52.336;21.200;2023-04-21T08:03:47;100894.96;;;16.26;44.14
25510;BME280;13413;52.336;21.200;2023-04-21T08:06:41;100890.06;;;16.36;43.21
25510;BME280;13413;52.336;21.200;2023-04-21T08:09:35;100893.28;;;16.39;41.77
25510;BME280;13413;52.336;21.200;2023-04-21T08:12:29;100886.56;;;16.50;41.64
25510;BME280;13413;52.336;21.200;2023-04-21T08:15:22;100882.80;;;16.64;41.95
25510;BME280;13413;52.336;21.200;2023-04-21T08:18:17;100887.36;;;16.73;39.70
25510;BME280;13413;52.336;21.200;2023-04-21T08:21:11;100890.41;;;16.85;40.21
25510;BME280;13413;52.336;21.200;2023-04-21T08:24:06;100889.89;;;16.99;39.90
25510;BME280;13413;52.336;21.200;2023-04-21T08:27:00;100886.77;;;17.14;39.21
25510;BME280;13413;52.336;21.200;2023-04-21T08:29:53;100886.08;;;17.29;39.23
25510;BME280;13413;52.336;21.200;2023-04-21T08:32:47;100885.25;;;17.37;39.05
25510;BME280;13413;52.336;21.200;2023-04-21T08:35:42;100882.23;;;17.49;38.20
25510;BME280;13413;52.336;21.200;2023-04-21T08:38:36;100880.64;;;17.63;38.61
25510;BME280;13413;52.336;21.200;2023-04-21T08:41:28;100877.40;;;17.75;37.11
25510;BME280;13413;52.336;21.200;2023-04-21T08:47:06;100880.73;;;17.94;35.04
25510;BME280;13413;52.336;21.200;2023-04-21T08:50:03;100878.37;;;18.00;35.79
25510;BME280;13413;52.336;21.200;2023-04-21T08:52:59;100876.93;;;18.12;35.25
25510;BME280;13413;52.336;21.200;2023-04-21T08:55:55;100877.10;;;18.24;34.48
25510;BME280;13413;52.336;21.200;2023-04-21T08:58:50;100878.72;;;18.31;33.90
25510;BME280;13413;52.336;21.200;2023-04-21T09:02:09;100876.94;;;18.49;34.79
25510;BME280;13413;52.336;21.200;2023-04-21T09:05:04;100871.13;;;18.73;34.57
25510;BME280;13413;52.336;21.200;2023-04-21T09:08:10;100866.42;;;18.95;34.70
25510;BME280;13413;52.336;21.200;2023-04-21T09:11:05;100869.19;;;19.07;32.93
25510;BME280;13413;52.336;21.200;2023-04-21T09:14:00;100866.35;;;19.22;32.81
25510;BME280;13413;52.336;21.200;2023-04-21T09:17:01;100860.99;;;19.34;33.09
25510;BME280;13413;52.336;21.200;2023-04-21T09:19:56;100865.40;;;19.59;32.88
25510;BME280;13413;52.336;21.200;2023-04-21T09:22:50;100862.95;;;19.75;31.32
25510;BME280;13413;52.336;21.200;2023-04-21T09:25:44;100860.30;;;19.78;31.51
25510;BME280;13413;52.336;21.200;2023-04-21T09:28:37;100861.00;;;19.91;31.26
25510;BME280;13413;52.336;21.200;2023-04-21T09:31:35;100851.03;;;20.07;31.31
25510;BME280;13413;52.336;21.200;2023-04-21T09:34:30;100848.11;;;20.29;31.40
25510;BME280;13413;52.336;21.200;2023-04-21T09:37:24;100846.52;;;20.45;30.92
25510;BME280;13413;52.336;21.200;2023-04-21T09:40:19;100845.55;;;20.61;30.82
25510;BME280;13413;52.336;21.200;2023-04-21T09:43:13;100843.77;;;20.80;31.37
25510;BME280;13413;52.336;21.200;2023-04-21T09:46:08;100844.31;;;21.15;31.44
25510;BME280;13413;52.336;21.200;2023-04-21T09:49:04;100840.26;;;21.46;31.08
25510;BME280;13413;52.336;21.200;2023-04-21T09:52:00;100840.07;;;21.52;30.36
25510;BME280;13413;52.336;21.200;2023-04-21T09:55:00;100838.84;;;21.72;30.31
25510;BME280;13413;52.336;21.200;2023-04-21T09:57:58;100842.29;;;21.89;29.54
25510;BME280;13413;52.336;21.200;2023-04-21T10:00:54;100829.69;;;21.97;29.94
25510;BME280;13413;52.336;21.200;2023-04-21T10:03:50;100826.23;;;22.24;29.41
25510;BME280;13413;52.336;21.200;2023-04-21T10:06:45;100820.39;;;22.50;29.80
25510;BME280;13413;52.336;21.200;2023-04-21T10:09:46;100818.33;;;22.83;29.20
25510;BME280;13413;52.336;21.200;2023-04-21T10:12:41;100823.98;;;22.78;27.43
25510;BME280;13413;52.336;21.200;2023-04-21T10:15:43;100813.71;;;22.62;27.82
25510;BME280;13413;52.336;21.200;2023-04-21T10:18:38;100814.56;;;22.47;27.54
25510;BME280;13413;52.336;21.200;2023-04-21T10:21:36;100809.86;;;22.34;26.74
25510;BME280;13413;52.336;21.200;2023-04-21T10:24:31;100813.28;;;22.42;27.43
25510;BME280;13413;52.336;21.200;2023-04-21T10:27:34;100806.06;;;22.73;27.69
25510;BME280;13413;52.336;21.200;2023-04-21T10:30:28;100803.16;;;23.12;27.77
25510;BME280;13413;52.336;21.200;2023-04-21T10:33:24;100800.59;;;23.42;26.58
25510;BME280;13413;52.336;21.200;2023-04-21T10:36:24;100796.69;;;23.24;25.89
25510;BME280;13413;52.336;21.200;2023-04-21T10:39:29;100792.71;;;23.08;26.07
25510;BME280;13413;52.336;21.200;2023-04-21T10:42:34;100796.27;;;23.15;26.34
25510;BME280;13413;52.336;21.200;2023-04-21T10:45:28;100796.13;;;23.34;26.28
25510;BME280;13413;52.336;21.200;2023-04-21T10:48:23;100799.42;;;23.50;25.97
25510;BME280;13413;52.336;21.200;2023-04-21T10:51:19;100790.95;;;23.65;25.84
25510;BME280;13413;52.336;21.200;2023-04-21T10:54:16;100787.54;;;23.81;25.97
25510;BME280;13413;52.336;21.200;2023-04-21T10:57:11;100783.52;;;23.90;25.60
25510;BME280;13413;52.336;21.200;2023-04-21T11:00:05;100775.27;;;23.84;25.19
25510;BME280;13413;52.336;21.200;2023-04-21T11:07:31;100765.95;;;24.34;25.65
25510;BME280;13413;52.336;21.200;2023-04-21T11:10:25;100769.04;;;24.46;25.33
25510;BME280;13413;52.336;21.200;2023-04-21T11:13:21;100762.62;;;24.50;25.05
25510;BME280;13413;52.336;21.200;2023-04-21T11:16:15;100756.01;;;24.32;24.76
25510;BME280;13413;52.336;21.200;2023-04-21T11:19:09;100749.92;;;24.55;25.30
25510;BME280;13413;52.336;21.200;2023-04-21T11:22:04;100747.60;;;24.56;24.55
25510;BME280;13413;52.336;21.200;2023-04-21T11:24:58;100744.73;;;24.53;24.99
25510;BME280;13413;52.336;21.200;2023-04-21T11:27:54;100739.71;;;24.66;24.59
25510;BME280;13413;52.336;21.200;2023-04-21T11:30:49;100731.08;;;24.67;24.36
25510;BME280;13413;52.336;21.200;2023-04-21T11:33:43;100730.83;;;24.68;24.14
25510;BME280;13413;52.336;21.200;2023-04-21T11:36:38;100730.41;;;24.58;24.02
25510;BME280;13413;52.336;21.200;2023-04-21T11:39:33;100728.85;;;24.35;23.77
25510;BME280;13413;52.336;21.200;2023-04-21T11:42:27;100732.14;;;24.33;23.80
25510;BME280;13413;52.336;21.200;2023-04-21T11:45:21;100729.96;;;24.43;24.25
25510;BME280;13413;52.336;21.200;2023-04-21T11:48:16;100726.98;;;24.43;23.41
25510;BME280;13413;52.336;21.200;2023-04-21T11:51:16;100720.67;;;24.48;23.88
25510;BME280;13413;52.336;21.200;2023-04-21T11:54:12;100720.97;;;24.53;23.70
25510;BME280;13413;52.336;21.200;2023-04-21T11:57:07;100718.13;;;24.55;23.99
25510;BME280;13413;52.336;21.200;2023-04-21T12:00:01;100713.69;;;24.63;24.35
25510;BME280;13413;52.336;21.200;2023-04-21T12:02:58;100714.52;;;24.70;23.87
25510;BME280;13413;52.336;21.200;2023-04-21T12:05:56;100707.54;;;24.54;24.18
25510;BME280;13413;52.336;21.200;2023-04-21T12:08:55;100703.02;;;24.44;23.79
25510;BME280;13413;52.336;21.200;2023-04-21T12:11:51;100700.28;;;24.37;24.27
25510;BME280;13413;52.336;21.200;2023-04-21T12:14:45;100704.23;;;24.36;24.20
25510;BME280;13413;52.336;21.200;2023-04-21T12:17:42;100699.63;;;24.36;24.26
25510;BME280;13413;52.336;21.200;2023-04-21T12:20:36;100697.16;;;24.27;23.88
25510;BME280;13413;52.336;21.200;2023-04-21T12:23:31;100700.10;;;24.22;24.18
25510;BME280;13413;52.336;21.200;2023-04-21T12:26:25;100686.12;;;24.24;23.92
25510;BME280;13413;52.336;21.200;2023-04-21T12:29:19;100686.19;;;24.10;23.51
25510;BME280;13413;52.336;21.200;2023-04-21T12:32:14;100676.08;;;24.08;24.18
25510;BME280;13413;52.336;21.200;2023-04-21T12:35:09;100679.90;;;24.31;24.66
25510;BME280;13413;52.336;21.200;2023-04-21T12:38:03;100671.56;;;24.53;24.62
25510;BME280;13413;52.336;21.200;2023-04-21T12:40:57;100668.40;;;24.58;24.18
25510;BME280;13413;52.336;21.200;2023-04-21T12:43:51;100669.02;;;24.47;24.03
25510;BME280;13413;52.336;21.200;2023-04-21T12:46:45;100667.67;;;24.48;24.49
25510;BME280;13413;52.336;21.200;2023-04-21T12:49:40;100658.56;;;24.55;24.18
25510;BME280;13413;52.336;21.200;2023-04-21T12:52:32;100661.45;;;24.58;24.35
25510;BME280;13413;52.336;21.200;2023-04-21T12:55:26;100659.27;;;24.62;23.76
25510;BME280;13413;52.336;21.200;2023-04-21T12:58:26;100658.86;;;24.45;24.12
25510;BME280;13413;52.336;21.200;2023-04-21T13:01:21;100654.77;;;24.35;23.91
25510;BME280;13413;52.336;21.200;2023-04-21T13:04:15;100655.79;;;24.26;24.34
25510;BME280;13413;52.336;21.200;2023-04-21T13:07:09;100647.75;;;24.32;24.36
25510;BME280;13413;52.336;21.200;2023-04-21T13:10:04;100646.23;;;24.34;24.23
25510;BME280;13413;52.336;21.200;2023-04-21T13:12:58;100645.17;;;24.36;23.76
25510;BME280;13413;52.336;21.200;2023-04-21T13:15:52;100644.39;;;24.34;24.02
25510;BME280;13413;52.336;21.200;2023-04-21T13:18:45;100639.98;;;24.38;24.28
25510;BME280;13413;52.336;21.200;2023-04-21T13:32:09;100619.91;;;24.59;23.88
25510;BME280;13413;52.336;21.200;2023-04-21T13:35:05;100621.54;;;24.52;24.23
25510;BME280;13413;52.336;21.200;2023-04-21T13:37:59;100617.54;;;24.61;24.58
25510;BME280;13413;52.336;21.200;2023-04-21T13:40:53;100616.59;;;24.68;24.76
25510;BME280;13413;52.336;21.200;2023-04-21T13:43:47;100614.56;;;24.73;24.60
25510;BME280;13413;52.336;21.200;2023-04-21T13:46:42;100612.40;;;24.63;23.56
25510;BME280;13413;52.336;21.200;2023-04-21T13:49:36;100604.85;;;24.39;23.45
25510;BME280;13413;52.336;21.200;2023-04-21T13:52:31;100599.94;;;24.21;23.59
25510;BME280;13413;52.336;21.200;2023-04-21T13:55:24;100599.96;;;24.18;23.90
25510;BME280;13413;52.336;21.200;2023-04-21T13:58:21;100597.10;;;24.25;24.49
25510;BME280;13413;52.336;21.200;2023-04-21T14:01:16;100591.16;;;24.36;24.16
25510;BME280;13413;52.336;21.200;2023-04-21T14:04:10;100588.77;;;24.27;24.02
25510;BME280;13413;52.336;21.200;2023-04-21T14:07:04;100584.45;;;24.09;24.44
25510;BME280;13413;52.336;21.200;2023-04-21T14:09:58;100582.86;;;23.97;24.40
25510;BME280;13413;52.336;21.200;2023-04-21T14:12:53;100578.29;;;23.90;24.52
25510;BME280;13413;52.336;21.200;2023-04-21T14:15:47;100570.08;;;23.88;24.73
25510;BME280;13413;52.336;21.200;2023-04-21T14:18:41;100574.75;;;23.95;24.87
25510;BME280;13413;52.336;21.200;2023-04-21T14:21:36;100571.93;;;23.94;24.73
25510;BME280;13413;52.336;21.200;2023-04-21T14:24:30;100570.14;;;23.93;24.76
25510;BME280;13413;52.336;21.200;2023-04-21T14:30:18;100567.23;;;23.89;24.86
25510;BME280;13413;52.336;21.200;2023-04-21T14:33:12;100567.48;;;23.86;24.65
25510;BME280;13413;52.336;21.200;2023-04-21T14:36:07;100561.23;;;23.80;24.71
25510;BME280;13413;52.336;21.200;2023-04-21T14:39:01;100560.81;;;23.75;24.50
25510;BME280;13413;52.336;21.200;2023-04-21T14:41:56;100553.38;;;23.42;24.40
25510;BME280;13413;52.336;21.200;2023-04-21T14:44:49;100545.00;;;23.43;24.83
25510;BME280;13413;52.336;21.200;2023-04-21T14:47:43;100544.27;;;23.51;24.64
25510;BME280;13413;52.336;21.200;2023-04-21T14:50:37;100540.66;;;23.46;24.86
25510;BME280;13413;52.336;21.200;2023-04-21T14:53:31;100535.81;;;23.61;25.05
25510;BME280;13413;52.336;21.200;2023-04-21T14:56:26;100532.83;;;23.72;25.11
25510;BME280;13413;52.336;21.200;2023-04-21T14:59:19;100537.89;;;23.75;25.26
25510;BME280;13413;52.336;21.200;2023-04-21T15:02:13;100534.14;;;23.72;25.14
25510;BME280;13413;52.336;21.200;2023-04-21T15:05:08;100529.02;;;23.63;25.33
25510;BME280;13413;52.336;21.200;2023-04-21T15:08:02;100528.04;;;23.57;25.57
25510;BME280;13413;52.336;21.200;2023-04-21T15:10:57;100531.30;;;23.59;25.69
25510;BME280;13413;52.336;21.200;2023-04-21T15:13:50;100525.83;;;23.58;25.94
25510;BME280;13413;52.336;21.200;2023-04-21T15:16:45;100525.14;;;23.56;25.58
25510;BME280;13413;52.336;21.200;2023-04-21T15:19:38;100518.88;;;23.45;25.76
25510;BME280;13413;52.336;21.200;2023-04-21T15:22:32;100519.86;;;23.27;25.80
25510;BME280;13413;52.336;21.200;2023-04-21T15:25:28;100517.21;;;23.09;26.02
25510;BME280;13413;52.336;21.200;2023-04-21T15:28:22;100510.80;;;22.97;26.00
25510;BME280;13413;52.336;21.200;2023-04-21T15:31:16;100508.73;;;22.83;26.12
25510;BME280;13413;52.336;21.200;2023-04-21T15:34:10;100515.46;;;22.64;26.13
25510;BME280;13413;52.336;21.200;2023-04-21T15:37:04;100510.76;;;22.48;26.20
25510;BME280;13413;52.336;21.200;2023-04-21T15:39:57;100512.96;;;22.33;26.50
25510;BME280;13413;52.336;21.200;2023-04-21T15:42:50;100513.33;;;22.23;26.84
25510;BME280;13413;52.336;21.200;2023-04-21T15:51:38;100512.48;;;22.00;27.21
25510;BME280;13413;52.336;21.200;2023-04-21T15:54:33;100507.23;;;21.99;27.25
25510;BME280;13413;52.336;21.200;2023-04-21T15:57:27;100510.50;;;21.92;27.17